Time;durP1;ratioP1;P1;durP2;ratioP2;P2;SDS_P1;SDS_P2;PMS_P1;PMS_P2;Temp;Humidity;BMP_temperature;BMP_pressure;BME280_temperature;BME280_humidity;BME280_pressure;Samples;Min_cycle;Max_cycle;Signal;HPM_P1;HPM_P2
2023/10/14 00:00:28;;;;;;;8.48;2.05;;;20.90;65.50;;;;;;5029806;28;20251;-29
2023/10/14 00:03:04;;;;;;;5.30;1.60;;;20.90;65.30;;;;;;5025310;28;20235;-29
2023/10/14 00:05:32;;;;;;;9.70;1.92;;;20.90;65.70;;;;;;5009155;28;20203;-29
2023/10/14 00:08:00;;;;;;;5.70;1.70;;;20.80;65.60;;;;;;5007362;28;20201;-29
2023/10/14 00:10:37;;;;;;;7.95;1.75;;;20.80;65.70;;;;;;5014861;28;20213;-29
2023/10/14 00:13:04;;;;;;;5.18;1.60;;;20.80;65.70;;;;;;5009036;28;20198;-30
2023/10/14 00:15:34;;;;;;;5.30;1.30;;;20.70;66.20;;;;;;5044112;28;20295;-30
2023/10/14 00:18:01;;;;;;;4.35;0.63;;;20.70;66.10;;;;;;5023060;28;20792;-30
2023/10/14 00:20:38;;;;;;;1.98;0.68;;;20.60;65.90;;;;;;5008172;28;20564;-30
2023/10/14 00:23:11;;;;;;;1.23;0.38;;;20.50;65.60;;;;;;5007518;28;20584;-30
2023/10/14 00:25:40;;;;;;;1.67;0.40;;;20.40;65.30;;;;;;5006375;28;20205;-31
2023/10/14 00:28:12;;;;;;;1.75;0.40;;;20.30;65.30;;;;;;5025193;28;20623;-31
2023/10/14 00:30:42;;;;;;;2.50;0.40;;;20.20;65.40;;;;;;5027007;28;20196;-31
2023/10/14 00:33:12;;;;;;;4.07;0.60;;;20.10;65.40;;;;;;5025743;28;20227;-31
2023/10/14 00:35:40;;;;;;;2.75;0.50;;;20.00;65.50;;;;;;5007453;28;20739;-31
2023/10/14 00:38:15;;;;;;;1.17;0.50;;;19.80;65.40;;;;;;5005802;28;20240;-32
2023/10/14 00:40:46;;;;;;;0.52;0.40;;;19.70;65.50;;;;;;5006608;28;20292;-33
2023/10/14 00:43:13;;;;;;;0.63;0.20;;;19.60;65.60;;;;;;5008750;28;20194;-32
2023/10/14 00:45:43;;;;;;;1.75;0.40;;;19.50;65.70;;;;;;5023863;28;20221;-32
2023/10/14 00:48:19;;;;;;;0.63;0.30;;;19.40;65.70;;;;;;5041551;28;20347;-32
2023/10/14 00:50:51;;;;;;;2.47;0.25;;;19.40;65.80;;;;;;5007510;28;20588;-34
2023/10/14 00:53:18;;;;;;;0.40;0.17;;;19.30;65.80;;;;;;4991241;28;20205;-33
2023/10/14 00:58:24;;;;;;;0.70;0.22;;;19.10;66.00;;;;;;5005378;28;20660;-33
2023/10/14 01:01:00;;;;;;;2.28;0.43;;;19.00;66.00;;;;;;5005575;28;20566;-33
2023/10/14 01:03:31;;;;;;;4.97;0.70;;;19.00;66.40;;;;;;5013780;28;20205;-33
2023/10/14 01:06:23;;;;;;;2.05;0.70;;;18.80;65.70;;;;;;5024032;28;20312;-33
2023/10/14 01:08:55;;;;;;;2.95;0.90;;;18.70;65.60;;;;;;5018939;28;20205;-33
2023/10/14 01:11:28;;;;;;;5.72;1.15;;;18.60;65.70;;;;;;5028361;28;20952;-33
2023/10/14 01:14:05;;;;;;;5.70;1.23;;;18.50;65.80;;;;;;5027954;28;20640;-33
2023/10/14 01:16:34;;;;;;;5.77;0.93;;;18.30;66.00;;;;;;5011819;28;21005;-33
2023/10/14 01:19:10;;;;;;;6.78;1.17;;;18.20;65.70;;;;;;5025502;28;20224;-33
2023/10/14 01:21:41;;;;;;;7.40;1.15;;;18.10;65.90;;;;;;5020793;28;20201;-34
2023/10/14 01:24:15;;;;;;;8.65;1.30;;;18.00;65.90;;;;;;5015279;28;20223;-34
2023/10/14 01:27:07;;;;;;;10.00;1.88;;;17.90;66.10;;;;;;5024581;28;20291;-32
2023/10/14 01:29:41;;;;;;;7.07;1.38;;;17.80;66.10;;;;;;5026330;28;20668;-33
2023/10/14 01:33:10;;;;;;;7.50;1.38;;;17.70;66.30;;;;;;5025292;28;20303;-31
2023/10/14 01:35:31;;;;;;;5.40;1.30;;;17.60;66.20;;;;;;5007470;28;20304;-31
2023/10/14 01:38:00;;;;;;;10.52;1.80;;;17.60;66.30;;;;;;5005975;28;20296;-31
2023/10/14 01:40:37;;;;;;;6.10;1.55;;;17.50;66.20;;;;;;5004737;28;20208;-31
2023/10/14 01:43:08;;;;;;;7.47;1.92;;;17.40;66.30;;;;;;5005093;28;20304;-33
2023/10/14 01:45:39;;;;;;;12.35;2.20;;;17.30;66.30;;;;;;5024991;28;20826;-32
2023/10/14 01:50:46;;;;;;;9.60;2.00;;;17.20;66.70;;;;;;5006023;28;20229;-31
2023/10/14 01:53:17;;;;;;;10.25;2.10;;;17.20;66.60;;;;;;5005244;28;20195;-31
2023/10/14 01:55:50;;;;;;;9.00;2.00;;;17.10;66.40;;;;;;5004822;28;20613;-31
2023/10/14 01:58:23;;;;;;;11.82;2.05;;;17.10;66.60;;;;;;5014841;28;20248;-31
2023/10/14 02:03:50;;;;;;;11.30;2.00;;;17.00;66.50;;;;;;5023835;28;20209;-31
2023/10/14 02:06:30;;;;;;;12.40;2.30;;;16.90;66.70;;;;;;5027753;28;20213;-31
2023/10/14 02:08:58;;;;;;;10.53;2.00;;;16.90;66.80;;;;;;5042740;28;20200;-31
2023/10/14 02:11:33;;;;;;;9.90;2.40;;;16.80;66.70;;;;;;5026247;28;20287;-32
2023/10/14 02:14:07;;;;;;;10.77;2.30;;;16.80;66.60;;;;;;5024735;28;20247;-31
2023/10/14 02:16:42;;;;;;;11.83;2.50;;;16.80;66.60;;;;;;5019764;28;20275;-31
2023/10/14 02:22:03;;;;;;;14.80;2.67;;;16.70;66.70;;;;;;5007486;28;20193;-31
2023/10/14 02:24:32;;;;;;;11.00;2.73;;;16.60;66.80;;;;;;5006898;28;20267;-31
2023/10/14 02:27:12;;;;;;;14.40;3.13;;;16.60;66.90;;;;;;5026433;28;20212;-31
2023/10/14 02:29:46;;;;;;;14.40;2.60;;;16.50;66.90;;;;;;5025900;28;20702;-31
2023/10/14 02:32:13;;;;;;;15.43;2.67;;;16.50;67.00;;;;;;5025735;28;20213;-31
2023/10/14 02:34:46;;;;;;;11.00;2.70;;;16.50;67.30;;;;;;5018238;28;20208;-30
2023/10/14 02:37:14;;;;;;;14.27;3.33;;;16.40;66.90;;;;;;5005638;28;20197;-30
2023/10/14 02:39:50;;;;;;;17.27;3.38;;;16.40;67.00;;;;;;5003885;28;20268;-31
2023/10/14 02:42:25;;;;;;;19.10;3.60;;;16.30;66.90;;;;;;5004771;28;20296;-30
2023/10/14 02:44:59;;;;;;;14.17;2.97;;;16.30;67.00;;;;;;5006329;28;20201;-30
2023/10/14 02:47:32;;;;;;;13.33;3.00;;;16.20;66.90;;;;;;5004919;28;20282;-30
2023/10/14 02:50:05;;;;;;;15.57;3.47;;;16.20;67.00;;;;;;5005323;28;20221;-30
2023/10/14 02:52:38;;;;;;;17.63;3.83;;;16.10;66.90;;;;;;5009817;28;20213;-31
2023/10/14 02:55:42;;;;;;;21.63;3.57;;;16.10;66.80;;;;;;5007930;28;20280;-30
2023/10/14 02:58:13;;;;;;;11.43;2.97;;;16.00;66.80;;;;;;5007699;28;20320;-31
2023/10/14 03:00:41;;;;;;;14.50;3.00;;;16.00;67.60;;;;;;5008212;28;20197;-31
2023/10/14 03:03:19;;;;;;;13.93;2.90;;;15.90;66.90;;;;;;5006610;28;20323;-30
2023/10/14 03:05:52;;;;;;;14.73;3.03;;;15.80;66.80;;;;;;5008625;28;20323;-31
2023/10/14 03:08:20;;;;;;;14.43;3.10;;;15.80;66.80;;;;;;5008774;28;20218;-30
2023/10/14 03:10:56;;;;;;;18.27;3.50;;;15.70;66.80;;;;;;5008329;28;20364;-30
2023/10/14 03:13:26;;;;;;;14.63;3.53;;;15.70;66.80;;;;;;5005862;28;20214;-30
2023/10/14 03:15:56;;;;;;;13.97;3.30;;;15.70;66.70;;;;;;5009086;28;20268;-31
2023/10/14 03:18:37;;;;;;;17.20;3.47;;;15.60;66.80;;;;;;5005316;28;20205;-30
2023/10/14 03:21:22;;;;;;;14.07;3.07;;;15.50;66.70;;;;;;5005817;28;20288;-30
2023/10/14 03:23:56;;;;;;;14.03;3.77;;;15.50;66.80;;;;;;5006966;28;20542;-31
2023/10/14 03:26:33;;;;;;;14.77;3.30;;;15.40;66.80;;;;;;5013265;28;20247;-30
2023/10/14 03:29:05;;;;;;;17.80;3.77;;;15.40;66.90;;;;;;5038208;28;20644;-31
2023/10/14 03:31:35;;;;;;;15.00;3.60;;;15.30;66.70;;;;;;5038848;28;20247;-30
2023/10/14 03:34:09;;;;;;;13.37;3.40;;;15.30;66.90;;;;;;5024279;28;20216;-31
2023/10/14 03:36:42;;;;;;;12.77;3.30;;;15.20;66.70;;;;;;5007834;28;20570;-30
2023/10/14 03:39:21;;;;;;;15.83;3.40;;;15.20;66.70;;;;;;5003482;28;20308;-30
2023/10/14 03:41:53;;;;;;;16.23;3.63;;;15.10;66.70;;;;;;5002638;28;20225;-30
2023/10/14 03:44:23;;;;;;;15.57;3.03;;;15.10;66.80;;;;;;5002977;28;20225;-31
2023/10/14 03:46:59;;;;;;;16.20;3.57;;;15.10;66.90;;;;;;5016546;28;20201;-31
2023/10/14 03:49:27;;;;;;;19.33;2.97;;;15.00;66.80;;;;;;5027603;28;20232;-30
2023/10/14 03:51:57;;;;;;;15.73;3.00;;;15.00;66.80;;;;;;5014408;28;20206;-30
2023/10/14 03:54:28;;;;;;;13.13;2.80;;;15.00;66.80;;;;;;4993604;28;20225;-30
2023/10/14 03:57:01;;;;;;;13.67;3.00;;;14.90;66.80;;;;;;5018732;28;20203;-31
2023/10/14 03:59:33;;;;;;;15.03;2.93;;;14.80;66.90;;;;;;5028435;28;20765;-30
2023/10/14 04:02:15;;;;;;;12.10;2.83;;;14.80;66.90;;;;;;5027817;28;20228;-31
2023/10/14 04:04:44;;;;;;;12.70;3.10;;;14.80;66.80;;;;;;5026988;28;20232;-30
2023/10/14 04:07:15;;;;;;;14.93;3.27;;;14.70;66.90;;;;;;5010567;28;20217;-30
2023/10/14 04:12:53;;;;;;;11.37;2.20;;;14.70;67.00;;;;;;5005424;28;20198;-30
2023/10/14 04:17:47;;;;;;;15.63;2.63;;;14.60;66.80;;;;;;5007787;28;20661;-30
2023/10/14 04:22:42;;;;;;;16.13;2.50;;;14.50;66.90;;;;;;5008075;28;20201;-28
2023/10/14 04:25:19;;;;;;;11.57;2.33;;;14.40;66.90;;;;;;5006312;28;20237;-29
2023/10/14 04:35:33;;;;;;;11.63;2.53;;;14.30;66.80;;;;;;5027049;28;20703;-30
2023/10/14 04:38:16;;;;;;;13.67;2.67;;;14.30;67.00;;;;;;5007530;28;20732;-30
2023/10/14 04:40:53;;;;;;;11.60;2.33;;;14.20;67.00;;;;;;5008598;28;20217;-30
2023/10/14 04:46:16;;;;;;;11.27;2.43;;;14.20;67.00;;;;;;5010514;28;20293;-30
2023/10/14 04:49:00;;;;;;;13.07;2.67;;;14.10;67.00;;;;;;5028483;28;20568;-31
2023/10/14 04:51:48;;;;;;;15.37;2.47;;;14.10;67.10;;;;;;5025697;28;20250;-30
2023/10/14 04:54:22;;;;;;;13.73;2.50;;;14.00;67.10;;;;;;5011222;28;20186;-30
2023/10/14 04:56:57;;;;;;;14.40;2.80;;;14.00;66.90;;;;;;5006467;28;20679;-30
2023/10/14 04:59:27;;;;;;;12.07;2.60;;;14.00;67.20;;;;;;4990098;28;20636;-30
2023/10/14 05:01:57;;;;;;;9.83;1.93;;;13.90;67.00;;;;;;5005540;28;20319;-30
2023/10/14 05:04:37;;;;;;;14.50;2.53;;;13.90;67.00;;;;;;5010517;28;20198;-30
2023/10/14 05:07:05;;;;;;;13.67;2.70;;;13.90;67.00;;;;;;5018174;28;20216;-30
2023/10/14 05:09:39;;;;;;;16.37;2.77;;;13.80;67.00;;;;;;5012129;28;20609;-30
2023/10/14 05:12:14;;;;;;;12.57;2.60;;;13.80;67.10;;;;;;5005849;28;20295;-30
2023/10/14 05:14:43;;;;;;;14.03;2.80;;;13.80;67.10;;;;;;5008281;28;20205;-30
2023/10/14 05:19:44;;;;;;;16.30;2.93;;;13.70;66.90;;;;;;5009676;28;20279;-30
2023/10/14 05:24:49;;;;;;;12.00;2.63;;;13.70;67.10;;;;;;5019321;28;20196;-31
2023/10/14 05:27:19;;;;;;;17.10;2.37;;;13.60;67.20;;;;;;5024319;28;20221;-30
2023/10/14 05:29:52;;;;;;;14.30;2.90;;;13.60;67.20;;;;;;5021195;28;20205;-31
2023/10/14 05:32:30;;;;;;;17.67;2.33;;;13.60;67.20;;;;;;5007823;28;20570;-30
2023/10/14 05:35:09;;;;;;;12.20;2.77;;;13.60;67.00;;;;;;5016083;28;20802;-30
2023/10/14 05:37:41;;;;;;;15.10;2.67;;;13.50;67.10;;;;;;5022367;28;20215;-30
2023/10/14 05:40:17;;;;;;;16.20;3.03;;;13.50;67.20;;;;;;5039925;28;20216;-30
2023/10/14 05:42:47;;;;;;;19.50;2.60;;;13.50;67.20;;;;;;5032765;28;20250;-30
2023/10/14 05:45:14;;;;;;;10.63;2.17;;;13.50;67.30;;;;;;5021361;28;20212;-30
2023/10/14 05:47:46;;;;;;;17.27;2.77;;;13.50;67.30;;;;;;5024796;28;20622;-30
2023/10/14 05:50:16;;;;;;;11.00;2.77;;;13.50;67.30;;;;;;5021270;28;20215;-30
2023/10/14 05:52:46;;;;;;;16.27;3.13;;;13.40;67.20;;;;;;5012941;28;20205;-30
2023/10/14 05:55:19;;;;;;;14.07;3.00;;;13.40;67.30;;;;;;5014735;28;20762;-30
2023/10/14 05:57:48;;;;;;;12.20;2.47;;;13.40;67.20;;;;;;5015120;28;20402;-30
2023/10/14 06:00:22;;;;;;;11.27;2.80;;;13.40;67.20;;;;;;5021916;28;20786;-30
2023/10/14 06:02:51;;;;;;;13.33;2.63;;;13.30;67.20;;;;;;5019766;28;20291;-30
2023/10/14 06:05:26;;;;;;;13.17;2.97;;;13.30;67.20;;;;;;5022482;28;20212;-30
2023/10/14 06:08:16;;;;;;;13.90;2.77;;;13.30;67.30;;;;;;5003136;28;20201;-30
2023/10/14 06:10:46;;;;;;;12.63;2.63;;;13.30;67.30;;;;;;5016407;28;20213;-30
2023/10/14 06:13:14;;;;;;;17.67;3.37;;;13.20;67.20;;;;;;5010789;28;20213;-30
2023/10/14 06:15:44;;;;;;;18.30;3.20;;;13.20;67.30;;;;;;5016315;28;20680;-30
2023/10/14 06:18:14;;;;;;;17.37;3.00;;;13.20;67.50;;;;;;5019674;28;20631;-30
2023/10/14 06:20:45;;;;;;;16.07;2.90;;;13.20;67.30;;;;;;5012620;28;20217;-30
2023/10/14 06:23:13;;;;;;;11.10;2.57;;;13.10;67.30;;;;;;5018432;28;20197;-30
2023/10/14 06:25:41;;;;;;;12.70;2.73;;;13.10;67.30;;;;;;5024154;28;20228;-30
2023/10/14 06:28:08;;;;;;;14.87;2.57;;;13.10;67.40;;;;;;5007702;28;20293;-30
2023/10/14 06:30:35;;;;;;;12.10;2.83;;;13.10;67.40;;;;;;5008883;28;20216;-30
2023/10/14 06:33:05;;;;;;;12.80;2.60;;;13.10;67.40;;;;;;5019838;28;20227;-30
2023/10/14 06:35:34;;;;;;;13.87;2.93;;;13.10;67.40;;;;;;5015214;28;20235;-30
2023/10/14 06:38:09;;;;;;;13.87;2.37;;;13.10;67.50;;;;;;5015515;28;20310;-30
2023/10/14 06:40:37;;;;;;;12.17;2.47;;;13.00;67.40;;;;;;5008537;28;20217;-30
2023/10/14 06:43:08;;;;;;;12.17;2.80;;;13.00;67.50;;;;;;5008478;28;20251;-30
2023/10/14 06:45:39;;;;;;;10.90;2.70;;;13.00;67.50;;;;;;5016942;28;20204;-30
2023/10/14 06:48:09;;;;;;;13.50;2.90;;;13.00;67.60;;;;;;5026552;28;20205;-30
2023/10/14 06:50:42;;;;;;;9.43;2.50;;;13.00;67.60;;;;;;5028077;28;20606;-30
2023/10/14 06:53:09;;;;;;;14.83;2.70;;;12.90;67.50;;;;;;5014782;28;20267;-31
2023/10/14 06:55:41;;;;;;;13.07;2.67;;;12.90;67.60;;;;;;5020662;28;20208;-30
2023/10/14 06:58:19;;;;;;;19.30;3.27;;;12.90;67.60;;;;;;5005663;28;20267;-31
2023/10/14 07:00:46;;;;;;;10.30;2.47;;;12.90;67.60;;;;;;5016840;28;20228;-30
2023/10/14 07:03:16;;;;;;;15.53;2.77;;;12.90;67.70;;;;;;5014853;28;20244;-31
2023/10/14 07:05:56;;;;;;;16.23;2.87;;;12.90;67.70;;;;;;5015886;28;20300;-31
2023/10/14 07:08:28;;;;;;;12.90;2.63;;;12.90;67.80;;;;;;5014832;28;20208;-32
2023/10/14 07:10:56;;;;;;;15.10;2.93;;;12.90;67.80;;;;;;5008008;28;20672;-32
2023/10/14 07:13:27;;;;;;;14.03;2.60;;;12.90;67.90;;;;;;5007446;28;20667;-32
2023/10/14 07:16:07;;;;;;;10.73;2.53;;;12.90;67.90;;;;;;5009925;28;20201;-32
2023/10/14 07:18:38;;;;;;;14.73;2.40;;;12.90;67.90;;;;;;5008856;28;20309;-32
2023/10/14 07:21:13;;;;;;;14.90;2.80;;;12.90;67.90;;;;;;5007718;28;20232;-32
2023/10/14 07:23:41;;;;;;;12.80;3.03;;;12.90;67.90;;;;;;5007407;28;20237;-32
2023/10/14 07:26:13;;;;;;;13.23;2.37;;;12.90;68.00;;;;;;5012441;28;20952;-32
2023/10/14 07:28:42;;;;;;;14.53;3.30;;;12.90;68.10;;;;;;5024082;28;20277;-32
2023/10/14 07:31:13;;;;;;;16.20;2.40;;;12.90;68.10;;;;;;5020825;28;20235;-32
2023/10/14 07:33:43;;;;;;;9.93;2.53;;;12.90;68.10;;;;;;5011232;28;20233;-32
2023/10/14 07:36:11;;;;;;;14.53;2.80;;;13.00;68.20;;;;;;5028735;28;20303;-32
2023/10/14 07:38:42;;;;;;;13.27;2.90;;;13.00;68.20;;;;;;5010352;28;20217;-32
2023/10/14 07:41:19;;;;;;;16.70;2.83;;;12.90;68.30;;;;;;5012707;28;20213;-32
2023/10/14 07:43:48;;;;;;;16.80;2.73;;;13.00;68.30;;;;;;4997455;28;20214;-32
2023/10/14 07:46:15;;;;;;;18.20;2.77;;;13.00;68.20;;;;;;5011494;28;20189;-32
2023/10/14 07:48:53;;;;;;;15.60;2.60;;;13.00;68.20;;;;;;5009742;28;20200;-32
2023/10/14 07:51:21;;;;;;;14.37;3.03;;;13.00;68.30;;;;;;5015166;28;20209;-32
2023/10/14 07:53:57;;;;;;;10.97;2.90;;;13.00;68.40;;;;;;5010892;28;20655;-32
2023/10/14 07:56:24;;;;;;;16.43;2.90;;;13.00;68.40;;;;;;5011450;28;20202;-32
2023/10/14 07:58:53;;;;;;;16.57;3.60;;;13.00;68.60;;;;;;5014426;28;20241;-32
2023/10/14 08:01:23;;;;;;;15.53;2.80;;;13.00;68.20;;;;;;5009656;28;20256;-30
2023/10/14 08:03:56;;;;;;;15.60;2.80;;;13.00;68.40;;;;;;5013509;28;20213;-30
2023/10/14 08:06:26;;;;;;;19.17;3.10;;;13.10;68.40;;;;;;5010257;28;20715;-30
2023/10/14 08:08:53;;;;;;;14.90;2.53;;;13.10;69.20;;;;;;5011691;28;20754;-29
2023/10/14 08:11:22;;;;;;;11.37;2.60;;;13.10;68.40;;;;;;5009934;28;20217;-30
2023/10/14 08:13:51;;;;;;;17.50;3.07;;;13.10;68.60;;;;;;5013836;28;20237;-31
2023/10/14 08:16:22;;;;;;;11.77;2.23;;;13.10;68.40;;;;;;5017791;28;20210;-30
2023/10/14 08:18:49;;;;;;;13.50;2.63;;;13.10;68.40;;;;;;5025079;28;20206;-30
2023/10/14 08:21:16;;;;;;;14.57;3.07;;;13.10;68.30;;;;;;5021481;28;20220;-29
2023/10/14 08:23:44;;;;;;;13.63;2.23;;;13.10;68.30;;;;;;5011130;28;20300;-32
2023/10/14 08:26:13;;;;;;;14.17;2.90;;;13.10;68.40;;;;;;5012795;28;20208;-32
2023/10/14 08:28:49;;;;;;;15.53;2.70;;;13.10;68.30;;;;;;5017189;28;20546;-32
2023/10/14 08:31:16;;;;;;;17.03;3.17;;;13.10;68.40;;;;;;5030420;28;20195;-32
2023/10/14 08:33:45;;;;;;;12.90;2.47;;;13.10;68.30;;;;;;5023770;28;20208;-32
2023/10/14 08:36:13;;;;;;;15.00;2.97;;;13.10;68.40;;;;;;5012289;28;20707;-32
2023/10/14 08:38:44;;;;;;;12.87;3.10;;;13.20;68.50;;;;;;5012952;28;20695;-31
2023/10/14 08:41:17;;;;;;;16.40;3.07;;;13.20;68.50;;;;;;5010475;28;20298;-32
2023/10/14 08:43:49;;;;;;;15.27;3.07;;;13.20;68.50;;;;;;5025584;28;20968;-32
2023/10/14 08:46:23;;;;;;;14.27;3.10;;;13.20;68.50;;;;;;5010767;28;20218;-31
2023/10/14 08:48:53;;;;;;;19.37;3.33;;;13.20;68.60;;;;;;5010462;28;20212;-32
2023/10/14 08:51:25;;;;;;;16.57;2.70;;;13.20;68.70;;;;;;5029906;28;20235;-31
2023/10/14 08:54:14;;;;;;;15.17;3.27;;;13.20;68.40;;;;;;5003248;28;20917;-39
2023/10/14 08:56:43;;;;;;;15.30;2.70;;;13.20;68.50;;;;;;5011604;28;20677;-32
2023/10/14 08:59:12;;;;;;;12.90;2.57;;;13.20;68.50;;;;;;5026152;28;20845;-32
2023/10/14 09:01:41;;;;;;;13.67;2.90;;;13.20;68.60;;;;;;5020878;28;20257;-32
2023/10/14 09:04:15;;;;;;;16.63;2.97;;;13.20;68.50;;;;;;5023794;28;20221;-32
2023/10/14 09:06:42;;;;;;;10.93;2.60;;;13.20;68.50;;;;;;5012438;28;20197;-32
2023/10/14 09:09:18;;;;;;;14.90;2.63;;;13.20;68.50;;;;;;5009598;28;20209;-32
2023/10/14 09:11:46;;;;;;;11.53;2.93;;;13.30;68.50;;;;;;5007606;28;20209;-32
2023/10/14 09:14:14;;;;;;;15.57;2.83;;;13.20;68.40;;;;;;5010006;28;20399;-32
2023/10/14 09:16:42;;;;;;;14.40;2.63;;;13.20;68.50;;;;;;5007884;28;20209;-32
2023/10/14 09:19:11;;;;;;;14.70;2.77;;;13.20;69.40;;;;;;5019631;28;20271;-32
2023/10/14 09:21:47;;;;;;;10.83;2.93;;;13.30;68.60;;;;;;5016463;28;20237;-32
2023/10/14 09:24:18;;;;;;;14.47;2.87;;;13.20;68.50;;;;;;5018653;28;20254;-32
2023/10/14 09:26:50;;;;;;;16.90;3.07;;;13.20;68.50;;;;;;5008991;28;20204;-34
2023/10/14 09:29:22;;;;;;;12.93;2.83;;;13.20;68.50;;;;;;5007889;28;20194;-34
2023/10/14 09:31:53;;;;;;;16.70;3.10;;;13.20;68.50;;;;;;5026652;28;20668;-35
2023/10/14 09:34:24;;;;;;;11.00;2.60;;;13.20;68.70;;;;;;5014148;28;20333;-34
2023/10/14 09:36:52;;;;;;;13.27;2.70;;;13.20;68.60;;;;;;5026728;28;20372;-34
2023/10/14 09:39:24;;;;;;;11.90;2.70;;;13.30;68.80;;;;;;5024051;28;20294;-34
2023/10/14 09:41:56;;;;;;;12.53;2.93;;;13.30;68.80;;;;;;5008301;28;20225;-34
2023/10/14 09:44:31;;;;;;;14.37;3.07;;;13.30;68.80;;;;;;5008022;28;20210;-34
2023/10/14 09:47:03;;;;;;;14.87;2.93;;;13.30;68.80;;;;;;5008073;28;20221;-34
2023/10/14 09:49:35;;;;;;;15.97;3.10;;;13.30;69.00;;;;;;5016634;28;20225;-34
2023/10/14 09:52:06;;;;;;;14.93;2.90;;;13.30;68.80;;;;;;5024040;28;20204;-35
2023/10/14 09:54:40;;;;;;;17.40;3.07;;;13.30;68.90;;;;;;5018252;28;20582;-34
2023/10/14 09:57:12;;;;;;;16.53;2.93;;;13.40;68.80;;;;;;5024744;28;20699;-34
2023/10/14 09:59:45;;;;;;;12.90;2.53;;;13.40;68.90;;;;;;5007136;28;20251;-34
2023/10/14 10:02:12;;;;;;;13.13;2.93;;;13.40;68.90;;;;;;5008043;28;20275;-34
2023/10/14 10:04:47;;;;;;;12.63;2.83;;;13.40;69.00;;;;;;5008942;28;20208;-34
2023/10/14 10:07:45;;;;;;;15.13;2.93;;;13.40;69.00;;;;;;5009352;28;20271;-35
2023/10/14 10:10:20;;;;;;;18.60;2.93;;;13.40;68.90;;;;;;5009651;28;20209;-34
2023/10/14 10:12:55;;;;;;;14.10;2.50;;;13.40;69.00;;;;;;5023872;28;20773;-34
2023/10/14 10:15:29;;;;;;;9.20;2.30;;;13.40;69.00;;;;;;5022654;28;20318;-34
2023/10/14 10:18:06;;;;;;;12.83;3.20;;;13.40;69.00;;;;;;5021133;28;20212;-33
2023/10/14 10:20:39;;;;;;;12.50;2.70;;;13.40;68.90;;;;;;5010026;28;20307;-34
2023/10/14 10:23:07;;;;;;;16.50;3.33;;;13.40;68.70;;;;;;5015831;28;20198;-33
2023/10/14 10:25:37;;;;;;;14.33;2.73;;;13.40;68.90;;;;;;5026620;28;20209;-34
2023/10/14 10:28:34;;;;;;;14.57;3.23;;;13.40;68.90;;;;;;5027260;28;20344;-34
2023/10/14 10:31:09;;;;;;;12.10;2.53;;;13.40;69.20;;;;;;5020101;28;20736;-34
2023/10/14 10:33:59;;;;;;;14.40;3.23;;;13.50;69.00;;;;;;5024521;28;20209;-34
2023/10/14 10:36:36;;;;;;;12.27;2.63;;;13.50;69.10;;;;;;5006293;28;20252;-34
2023/10/14 10:39:17;;;;;;;14.60;2.77;;;13.50;69.00;;;;;;5017421;28;20201;-34
2023/10/14 10:41:50;;;;;;;13.80;2.70;;;13.50;69.20;;;;;;5005808;28;20229;-34
2023/10/14 10:44:20;;;;;;;11.30;2.63;;;13.60;69.00;;;;;;5018432;28;20560;-34
2023/10/14 10:46:50;;;;;;;12.77;2.63;;;13.60;69.10;;;;;;5006721;28;20631;-34
2023/10/14 10:49:48;;;;;;;16.60;2.80;;;13.60;69.10;;;;;;5012658;28;20213;-34
2023/10/14 10:52:21;;;;;;;12.80;2.77;;;13.70;69.20;;;;;;5023814;28;20309;-34
2023/10/14 10:54:51;;;;;;;16.57;2.93;;;13.70;69.00;;;;;;5016883;28;20728;-33
2023/10/14 10:57:19;;;;;;;10.90;2.40;;;13.70;68.90;;;;;;5007970;28;20209;-34
2023/10/14 10:59:46;;;;;;;11.83;2.83;;;13.70;68.60;;;;;;5022776;28;20231;-34
2023/10/14 11:02:19;;;;;;;9.73;2.83;;;13.70;68.90;;;;;;5019039;28;20239;-34
2023/10/14 11:04:48;;;;;;;12.07;2.70;;;13.70;69.70;;;;;;5030527;28;20201;-34
2023/10/14 11:07:19;;;;;;;13.73;2.87;;;13.70;68.80;;;;;;5024897;28;20215;-34
2023/10/14 11:09:49;;;;;;;11.47;2.70;;;13.70;68.30;;;;;;5026081;28;20209;-34
2023/10/14 11:12:18;;;;;;;9.77;2.40;;;13.80;68.70;;;;;;5028811;28;20235;-34
2023/10/14 11:14:53;;;;;;;13.97;2.60;;;13.80;68.70;;;;;;5032679;28;20205;-34
2023/10/14 11:17:26;;;;;;;11.63;2.73;;;13.80;68.70;;;;;;5015712;28;20323;-34
2023/10/14 11:19:54;;;;;;;16.40;3.70;;;13.80;68.80;;;;;;5029577;28;20246;-34
2023/10/14 11:22:26;;;;;;;12.47;2.70;;;13.90;69.00;;;;;;5006426;28;20282;-34
2023/10/14 11:25:02;;;;;;;15.10;3.00;;;13.90;68.90;;;;;;5018277;28;20199;-34
2023/10/14 11:27:34;;;;;;;13.07;2.57;;;13.90;68.90;;;;;;5011360;28;20305;-34
2023/10/14 11:30:06;;;;;;;11.70;2.30;;;14.00;69.00;;;;;;5015673;28;20240;-34
2023/10/14 11:32:47;;;;;;;12.73;2.47;;;14.00;68.70;;;;;;5016925;28;20205;-34
2023/10/14 11:35:16;;;;;;;10.60;2.40;;;14.00;68.80;;;;;;5015114;28;20690;-34
2023/10/14 11:37:49;;;;;;;12.87;3.17;;;14.00;68.70;;;;;;4994216;28;20245;-34
2023/10/14 11:40:36;;;;;;;15.30;2.87;;;14.10;68.90;;;;;;5014377;28;20201;-34
2023/10/14 11:43:07;;;;;;;16.27;3.10;;;14.10;68.90;;;;;;5024237;28;20209;-34
2023/10/14 11:45:43;;;;;;;12.13;2.63;;;14.10;68.90;;;;;;5020865;28;20193;-34
2023/10/14 11:48:46;;;;;;;19.73;3.17;;;14.20;68.90;;;;;;5030887;28;20193;-34
2023/10/14 11:51:22;;;;;;;13.90;2.57;;;14.20;68.90;;;;;;5012666;28;20332;-34
2023/10/14 11:53:52;;;;;;;15.37;3.00;;;14.20;68.90;;;;;;5010721;28;20221;-34
2023/10/14 11:56:20;;;;;;;10.07;2.40;;;14.30;69.00;;;;;;5015168;28;20635;-34
2023/10/14 11:58:49;;;;;;;13.20;2.87;;;14.30;69.00;;;;;;5008345;28;20678;-34
2023/10/14 12:01:17;;;;;;;15.50;2.97;;;14.40;69.00;;;;;;5017254;28;20212;-34
2023/10/14 12:03:47;;;;;;;17.80;3.27;;;14.40;68.90;;;;;;5029655;28;20200;-34
2023/10/14 12:06:17;;;;;;;13.00;2.97;;;14.40;69.00;;;;;;5020356;28;20259;-34
2023/10/14 12:08:45;;;;;;;11.77;2.67;;;14.40;68.90;;;;;;5025623;28;20215;-34
2023/10/14 12:11:16;;;;;;;14.73;3.00;;;14.40;68.90;;;;;;5008120;28;20223;-34
2023/10/14 12:13:48;;;;;;;14.20;2.80;;;14.50;69.00;;;;;;5012448;28;20211;-35
2023/10/14 12:16:23;;;;;;;8.93;2.67;;;14.50;69.10;;;;;;5018743;28;20295;-34
2023/10/14 12:18:54;;;;;;;16.13;3.23;;;14.50;69.00;;;;;;5015502;28;20226;-34
2023/10/14 12:21:25;;;;;;;10.82;2.95;;;14.60;69.10;;;;;;5018428;28;20223;-33
2023/10/14 12:23:52;;;;;;;11.68;2.60;;;14.60;69.20;;;;;;5017426;28;20750;-34
2023/10/14 12:26:21;;;;;;;11.80;2.97;;;14.60;68.90;;;;;;5015776;28;20218;-34
2023/10/14 12:29:09;;;;;;;14.53;2.63;;;14.70;68.90;;;;;;5017814;28;20263;-34
2023/10/14 12:31:43;;;;;;;8.48;2.25;;;14.70;68.70;;;;;;5027512;28;20208;-34
2023/10/14 12:34:11;;;;;;;9.95;2.65;;;14.70;68.70;;;;;;5028452;28;20610;-34
2023/10/14 12:36:44;;;;;;;12.20;2.83;;;14.80;68.80;;;;;;5010918;28;20282;-35
2023/10/14 12:39:33;;;;;;;13.17;2.67;;;14.80;68.90;;;;;;5012645;28;20759;-34
2023/10/14 12:42:03;;;;;;;9.57;2.50;;;14.80;68.90;;;;;;5023158;28;20217;-34
2023/10/14 12:44:36;;;;;;;11.13;1.80;;;14.80;68.60;;;;;;5008394;28;20197;-34
2023/10/14 12:47:10;;;;;;;11.73;2.13;;;14.80;68.50;;;;;;5020829;28;20197;-34
2023/10/14 12:49:42;;;;;;;8.17;2.03;;;14.80;67.90;;;;;;5011033;28;20625;-35
2023/10/14 12:52:15;;;;;;;7.20;1.93;;;14.80;68.50;;;;;;5009974;28;20217;-34
2023/10/14 12:54:51;;;;;;;9.57;2.40;;;14.90;68.50;;;;;;5018785;28;20213;-34
2023/10/14 12:57:21;;;;;;;8.27;2.17;;;14.80;67.80;;;;;;5014000;28;20200;-34
2023/10/14 12:59:49;;;;;;;11.53;1.87;;;14.80;68.20;;;;;;5012003;28;20209;-34
2023/10/14 13:02:23;;;;;;;13.37;2.53;;;14.80;68.10;;;;;;5027834;28;20683;-34
2023/10/14 13:04:52;;;;;;;13.63;2.80;;;14.80;68.00;;;;;;5022412;28;20217;-34
2023/10/14 13:07:21;;;;;;;11.07;2.70;;;14.70;68.10;;;;;;5025531;28;20663;-34
2023/10/14 13:09:51;;;;;;;17.73;3.27;;;14.80;68.20;;;;;;5024637;28;20280;-34
2023/10/14 13:12:23;;;;;;;15.23;2.67;;;14.70;68.20;;;;;;5008682;28;20198;-34
2023/10/14 13:14:50;;;;;;;14.70;2.50;;;14.70;68.40;;;;;;5015007;28;20224;-35
2023/10/14 13:17:19;;;;;;;13.50;2.60;;;14.70;68.20;;;;;;5011914;28;20300;-34
2023/10/14 13:19:47;;;;;;;12.50;2.70;;;14.70;67.80;;;;;;5025439;28;20867;-33
2023/10/14 13:22:17;;;;;;;9.40;2.40;;;14.70;67.70;;;;;;5015056;28;20770;-35
2023/10/14 13:24:50;;;;;;;13.70;2.73;;;14.70;67.80;;;;;;5029531;28;20203;-34
2023/10/14 13:27:21;;;;;;;13.33;2.70;;;14.70;68.00;;;;;;5018561;28;20212;-34
2023/10/14 13:29:51;;;;;;;11.77;2.43;;;14.70;68.10;;;;;;5008893;28;20202;-34
2023/10/14 13:32:24;;;;;;;13.90;2.40;;;14.60;68.00;;;;;;5014790;28;20684;-33
2023/10/14 13:34:53;;;;;;;13.17;3.17;;;14.60;68.20;;;;;;5010306;28;20676;-33
2023/10/14 13:37:25;;;;;;;11.03;2.50;;;14.60;68.20;;;;;;5014197;28;20209;-33
2023/10/14 13:39:53;;;;;;;13.70;2.30;;;14.60;68.30;;;;;;5009517;28;20213;-33